Buena Vista, Wisconsin
Current Conditions -  °F | °C
As of 2:55 AM on Saturday 25 Oct 2014 (Local Time) from KSTE Reporting Station
Haze Haze  
Wind Chill: 53°   Ceiling: 500
Heat Index: 53°   Visibility: 5mi
Dew Point: 52°   Wind: 10mph
Humidity: 95%   Direction: 260°W
Pressure: 29.85"   Gusts: 20mph
Location:  44.4117°N, 89.5378°W
Report Text: KSTE 250755Z AUTO 26009G17KT 5SM BR OVC005 12/11 A2985 RMK AO2 T01180110
Loading
Personal Weather Stations






























Interactive Weather Map New forecast layout! Learn more

10-Day Weather Forecast

Advertisements
Track Severe Weather on mobile